CIV weather

Chomley Seaplane Base
Chomley, Alaska, United States

Public forecast

Using degrees Fahrenheit for public forecast. Weather courtesy of forecast.io.

METAR (pilot weather report)

Closest report is Ketchikan International Airport, 18.9 nm (35.0 km) ENE. Retrieved 2019/09/21 08:01 UTC (20 minutes ago):

PAKT 210801Z AUTO 14016G28KT 1 3/4SM +RA BR FEW007 OVC014 14/14 A2970

TAF (pilot weather forecast)

Closest forecast is Ketchikan International Airport, 18.9 nm (35.0 km) ENE. Retrieved 2019/09/21 06:36 UTC (2 hours ago):

TAF PAKT 210533Z 2106/2206 14020G32KT 4SM RA BR SCT006 OVC012 WS020/17050KT TEMPO 2106/2110 2SM +RA BR BKN006 FM211200 14014G24KT 3SM -RA BR BKN006 OVC012 FM211700 14012G20KT 6SM -SHRA SCT008 BKN025 OVC040 AMD LTD TO CLD VIS AND WIND 2106/2115